Time;durP1;ratioP1;P1;durP2;ratioP2;P2;SDS_P1;SDS_P2;PMS_P1;PMS_P2;Temp;Humidity;BMP_temperature;BMP_pressure;BME280_temperature;BME280_humidity;BME280_pressure;Samples;Min_cycle;Max_cycle;Signal;HPM_P1;HPM_P2
2022/07/04 00:01:42;;;;;;;1.97;1.13;;;22.20;55.40;;;;;;5063069;28;20457;-47
2022/07/04 00:04:09;;;;;;;1.50;1.10;;;22.20;55.70;;;;;;5061638;28;20465;-47
2022/07/04 00:06:36;;;;;;;1.50;1.20;;;22.10;56.00;;;;;;5064720;28;20492;-48
2022/07/04 00:09:03;;;;;;;1.70;1.17;;;22.10;56.20;;;;;;5046942;28;20446;-48
2022/07/04 00:11:30;;;;;;;1.87;1.23;;;22.00;56.60;;;;;;5063373;28;20865;-47
2022/07/04 00:13:57;;;;;;;1.73;1.27;;;22.00;55.80;;;;;;5062197;28;20496;-48
2022/07/04 00:16:23;;;;;;;1.70;1.17;;;22.00;55.60;;;;;;5061843;28;20496;-48
2022/07/04 00:18:50;;;;;;;1.80;1.30;;;22.00;55.70;;;;;;5043502;28;20536;-47
2022/07/04 00:21:17;;;;;;;2.27;1.27;;;21.90;55.70;;;;;;5060620;28;20468;-47
2022/07/04 00:23:44;;;;;;;1.13;1.03;;;21.90;56.20;;;;;;5060961;28;20471;-47
2022/07/04 00:26:10;;;;;;;1.47;1.10;;;21.90;56.20;;;;;;5029893;28;20461;-48
2022/07/04 00:28:37;;;;;;;2.63;1.20;;;21.90;56.10;;;;;;5063318;28;20460;-47
2022/07/04 00:31:04;;;;;;;2.20;1.40;;;21.90;56.10;;;;;;5064093;28;20456;-47
2022/07/04 00:33:31;;;;;;;1.27;1.17;;;21.90;56.80;;;;;;5048333;28;20575;-48
2022/07/04 00:35:58;;;;;;;1.30;1.20;;;21.80;56.60;;;;;;5043708;28;20454;-48
2022/07/04 00:38:24;;;;;;;2.23;1.50;;;21.80;57.10;;;;;;5057014;28;20458;-47
2022/07/04 00:40:51;;;;;;;1.40;1.30;;;21.80;56.70;;;;;;5062254;28;20943;-48
2022/07/04 00:43:26;;;;;;;2.77;1.50;;;21.80;56.70;;;;;;5064636;28;20465;-48
2022/07/04 00:45:53;;;;;;;2.20;1.80;;;21.80;56.70;;;;;;5061944;28;20985;-48
2022/07/04 00:48:19;;;;;;;1.77;1.40;;;21.80;57.00;;;;;;5051433;28;20460;-48
2022/07/04 00:50:47;;;;;;;1.77;1.67;;;21.70;57.30;;;;;;5060880;28;20457;-47
2022/07/04 00:53:15;;;;;;;4.53;1.67;;;21.70;57.10;;;;;;5064689;28;21020;-47
2022/07/04 00:55:42;;;;;;;3.07;1.40;;;21.70;57.20;;;;;;5058423;28;20503;-48
2022/07/04 00:58:10;;;;;;;2.30;1.53;;;21.60;57.60;;;;;;5046297;28;20466;-47
2022/07/04 01:00:36;;;;;;;3.43;1.40;;;21.60;57.80;;;;;;5059689;28;20464;-47
2022/07/04 01:03:04;;;;;;;6.30;1.83;;;21.50;58.00;;;;;;5045293;28;20466;-47
2022/07/04 01:05:31;;;;;;;3.70;2.10;;;21.50;57.90;;;;;;5061570;28;20446;-48
2022/07/04 01:07:59;;;;;;;3.70;2.97;;;21.50;57.80;;;;;;5032554;28;20754;-47
2022/07/04 01:10:26;;;;;;;1.77;1.67;;;21.50;57.80;;;;;;5062395;28;20559;-47
2022/07/04 01:12:54;;;;;;;4.43;1.80;;;21.50;58.00;;;;;;5060732;28;20994;-48
2022/07/04 01:15:21;;;;;;;4.00;1.87;;;21.50;57.90;;;;;;5058273;28;20469;-47
2022/07/04 01:17:49;;;;;;;1.50;1.40;;;21.40;58.30;;;;;;5062076;28;20469;-47
2022/07/04 01:20:16;;;;;;;1.93;1.83;;;21.40;58.30;;;;;;5060198;28;20450;-48
2022/07/04 01:22:43;;;;;;;2.47;1.80;;;21.40;58.20;;;;;;5061238;28;20462;-47
2022/07/04 01:25:10;;;;;;;2.47;2.27;;;21.40;58.10;;;;;;5059395;28;20453;-47
2022/07/04 01:27:37;;;;;;;4.03;1.70;;;21.40;58.20;;;;;;5044692;28;20455;-48
2022/07/04 01:30:04;;;;;;;2.30;1.87;;;21.30;58.20;;;;;;5060894;28;20818;-47
2022/07/04 01:32:31;;;;;;;1.90;1.80;;;21.30;58.20;;;;;;5043463;28;20752;-47
2022/07/04 01:34:58;;;;;;;5.93;1.83;;;21.30;58.10;;;;;;5047969;28;20445;-48
2022/07/04 01:37:24;;;;;;;2.47;1.60;;;21.20;58.40;;;;;;5059761;28;20462;-48
2022/07/04 01:39:51;;;;;;;2.20;1.70;;;21.20;59.20;;;;;;5058719;28;20466;-47
2022/07/04 01:42:18;;;;;;;2.10;1.97;;;21.20;59.00;;;;;;5058386;28;20464;-47
2022/07/04 01:44:45;;;;;;;1.93;1.77;;;21.20;59.20;;;;;;5044347;28;20831;-47
2022/07/04 01:47:12;;;;;;;2.30;1.73;;;21.20;59.20;;;;;;5046616;28;21045;-47
2022/07/04 01:49:38;;;;;;;4.13;1.60;;;21.10;59.30;;;;;;5063018;28;20453;-47
2022/07/04 01:52:05;;;;;;;2.10;1.90;;;21.10;59.50;;;;;;5057250;28;21028;-48
2022/07/04 01:54:32;;;;;;;2.60;1.50;;;21.10;59.70;;;;;;5057931;28;20463;-47
2022/07/04 01:56:59;;;;;;;3.80;2.03;;;21.10;59.90;;;;;;5049827;28;20469;-47
2022/07/04 02:01:29;;;;;;;3.50;2.00;;;21.10;59.70;;;;;;5060569;28;20462;-48
2022/07/04 02:02:13;;;;;;;1.93;1.73;;;21.10;59.70;;;;;;5058544;28;20472;-47
2022/07/04 02:04:39;;;;;;;2.63;2.00;;;21.00;59.90;;;;;;5059660;28;20438;-47
2022/07/04 02:07:06;;;;;;;2.90;1.90;;;21.00;60.00;;;;;;5058369;28;21914;-47
2022/07/04 02:09:38;;;;;;;1.90;1.80;;;21.00;60.20;;;;;;5061051;28;20445;-49
2022/07/04 02:14:50;;;;;;;3.00;2.13;;;20.90;60.20;;;;;;5061109;28;20442;-49
2022/07/04 02:17:17;;;;;;;2.10;1.83;;;20.90;60.30;;;;;;5042097;28;20588;-49
2022/07/04 02:19:44;;;;;;;3.03;1.97;;;20.90;60.40;;;;;;5045855;28;20466;-49
2022/07/04 02:22:10;;;;;;;2.00;1.77;;;20.90;60.60;;;;;;5058126;28;20495;-49
2022/07/04 02:24:37;;;;;;;2.83;2.10;;;20.90;60.50;;;;;;5044773;28;20450;-49
2022/07/04 02:27:04;;;;;;;2.30;2.00;;;20.90;60.40;;;;;;5042802;28;20470;-49
2022/07/04 02:29:31;;;;;;;2.97;1.70;;;20.80;60.40;;;;;;5062349;28;20852;-49
2022/07/04 02:31:58;;;;;;;3.23;2.50;;;20.80;60.60;;;;;;5060558;28;20954;-49
2022/07/04 02:34:25;;;;;;;2.70;1.80;;;20.70;60.80;;;;;;5061048;28;20492;-49
2022/07/04 02:36:52;;;;;;;2.07;1.80;;;20.70;60.90;;;;;;5042981;28;20451;-49
2022/07/04 02:39:18;;;;;;;2.50;2.30;;;20.60;61.10;;;;;;5059517;28;21013;-49
2022/07/04 02:41:45;;;;;;;3.47;2.10;;;20.60;61.20;;;;;;5052731;28;20461;-49
2022/07/04 02:44:12;;;;;;;2.50;2.30;;;20.60;61.30;;;;;;5069497;28;20464;-49
2022/07/04 02:46:39;;;;;;;2.67;1.60;;;20.50;61.30;;;;;;5067611;28;21044;-49
2022/07/04 02:49:06;;;;;;;6.73;2.70;;;20.50;61.50;;;;;;5053452;28;21049;-49
2022/07/04 02:51:33;;;;;;;2.47;2.10;;;20.50;61.90;;;;;;5052643;28;20841;-49
2022/07/04 02:54:00;;;;;;;3.03;2.07;;;20.50;61.80;;;;;;5062469;28;20588;-49
2022/07/04 02:56:27;;;;;;;2.43;2.30;;;20.50;61.70;;;;;;5067865;28;20463;-49
2022/07/04 02:58:54;;;;;;;2.00;1.80;;;20.40;61.80;;;;;;5049485;28;20464;-49
2022/07/04 03:01:21;;;;;;;2.00;1.80;;;20.50;61.90;;;;;;5064804;28;20469;-49
2022/07/04 03:03:48;;;;;;;3.43;2.00;;;20.40;61.80;;;;;;5064730;28;20462;-49
2022/07/04 03:06:15;;;;;;;2.40;2.20;;;20.40;62.00;;;;;;5068627;28;20502;-49
2022/07/04 03:08:42;;;;;;;2.20;1.77;;;20.40;62.00;;;;;;5064556;28;20454;-49
2022/07/04 03:11:09;;;;;;;1.97;1.83;;;20.30;62.20;;;;;;5066380;28;20488;-49
2022/07/04 03:13:38;;;;;;;2.70;2.00;;;20.20;62.60;;;;;;5053194;28;20530;-49
2022/07/04 03:16:05;;;;;;;3.77;2.30;;;20.20;62.80;;;;;;5050647;28;20457;-49
2022/07/04 03:18:32;;;;;;;2.20;2.00;;;20.10;63.00;;;;;;5064487;28;20456;-49
2022/07/04 03:21:00;;;;;;;4.07;1.77;;;20.10;62.80;;;;;;5066246;28;20453;-49
2022/07/04 03:23:27;;;;;;;2.20;2.10;;;20.10;63.00;;;;;;5048366;28;20464;-49
2022/07/04 03:25:53;;;;;;;2.57;2.37;;;20.10;63.20;;;;;;5067409;28;20974;-49
2022/07/04 03:28:21;;;;;;;3.47;1.80;;;20.00;63.30;;;;;;5064196;28;21048;-49
2022/07/04 03:30:48;;;;;;;2.83;2.63;;;20.00;63.50;;;;;;5065337;28;20461;-49
2022/07/04 03:33:15;;;;;;;3.47;2.27;;;20.00;63.70;;;;;;5050000;28;20478;-49
2022/07/04 03:35:42;;;;;;;2.60;2.03;;;19.90;63.80;;;;;;5070066;28;20488;-49
2022/07/04 03:38:09;;;;;;;2.60;2.30;;;19.90;63.70;;;;;;5067612;28;21303;-49
2022/07/04 03:40:36;;;;;;;2.33;2.13;;;19.90;63.60;;;;;;5049433;28;20455;-49
2022/07/04 03:43:03;;;;;;;3.40;2.17;;;19.90;63.90;;;;;;5064778;28;20465;-49
2022/07/04 03:45:30;;;;;;;2.10;2.00;;;19.80;64.00;;;;;;5063013;28;20903;-49
2022/07/04 03:47:56;;;;;;;3.23;2.00;;;19.80;64.00;;;;;;5049200;28;20446;-48
2022/07/04 03:50:23;;;;;;;4.50;1.97;;;19.80;64.10;;;;;;5052270;28;20458;-47
2022/07/04 03:52:50;;;;;;;4.00;2.20;;;19.80;64.10;;;;;;5062987;28;20454;-47
2022/07/04 03:55:17;;;;;;;2.70;2.20;;;19.70;64.10;;;;;;5064263;28;20441;-47
2022/07/04 03:57:44;;;;;;;2.70;2.10;;;19.70;64.20;;;;;;5062845;28;20456;-47
2022/07/04 04:00:11;;;;;;;2.37;2.17;;;19.70;64.50;;;;;;5051724;28;20489;-47
2022/07/04 04:02:38;;;;;;;3.23;2.23;;;19.70;64.50;;;;;;5056714;28;20453;-47
2022/07/04 04:05:27;;;;;;;2.20;2.00;;;19.70;64.70;;;;;;5061830;28;20483;-47
2022/07/04 04:07:55;;;;;;;2.70;2.50;;;19.70;64.70;;;;;;5042547;28;20461;-47
2022/07/04 04:10:24;;;;;;;2.33;2.13;;;19.70;64.70;;;;;;5065606;28;20464;-48
2022/07/04 04:12:51;;;;;;;2.50;2.30;;;19.60;64.80;;;;;;5061246;28;20599;-48
2022/07/04 04:15:17;;;;;;;2.17;2.00;;;19.60;65.10;;;;;;5063934;28;20453;-48
2022/07/04 04:17:44;;;;;;;2.40;2.20;;;19.60;65.20;;;;;;5048763;28;20823;-47
2022/07/04 04:20:11;;;;;;;3.83;2.70;;;19.60;65.30;;;;;;5058962;28;20468;-47
2022/07/04 04:22:38;;;;;;;5.17;2.73;;;19.60;65.40;;;;;;5061963;28;20864;-47
2022/07/04 04:25:05;;;;;;;2.47;2.27;;;19.60;65.40;;;;;;5045736;28;20492;-47
2022/07/04 04:27:32;;;;;;;2.60;2.17;;;19.60;65.50;;;;;;5059256;28;20462;-48
2022/07/04 04:29:59;;;;;;;3.70;2.23;;;19.70;65.40;;;;;;5046147;28;20450;-47
2022/07/04 04:32:25;;;;;;;2.50;2.30;;;19.70;65.20;;;;;;5060967;28;20457;-48
2022/07/04 04:34:52;;;;;;;1.70;1.60;;;19.70;65.10;;;;;;5057786;28;20500;-47
2022/07/04 04:37:19;;;;;;;3.10;2.00;;;19.70;64.60;;;;;;5060935;28;20974;-47
2022/07/04 04:39:46;;;;;;;3.03;2.43;;;19.80;64.50;;;;;;5060786;28;20456;-47
2022/07/04 04:42:12;;;;;;;2.80;1.90;;;19.70;64.70;;;;;;5062670;28;20453;-47
2022/07/04 04:44:39;;;;;;;2.67;2.50;;;19.70;64.90;;;;;;5065095;28;20457;-48
2022/07/04 04:47:06;;;;;;;3.40;2.23;;;19.80;64.60;;;;;;5061263;28;20548;-47
2022/07/04 04:49:33;;;;;;;4.10;2.10;;;19.80;64.80;;;;;;5060365;28;20838;-47
2022/07/04 04:52:00;;;;;;;3.17;2.37;;;19.80;64.70;;;;;;5045554;28;20454;-47
2022/07/04 04:54:27;;;;;;;8.30;2.80;;;19.80;64.50;;;;;;5061539;28;20489;-47
2022/07/04 04:56:53;;;;;;;2.70;2.40;;;19.80;64.30;;;;;;5061610;28;20827;-48
2022/07/04 04:59:20;;;;;;;2.20;2.10;;;19.90;64.30;;;;;;5046294;28;20433;-47
2022/07/04 05:01:47;;;;;;;3.20;2.10;;;19.80;64.60;;;;;;5061408;28;20549;-48
2022/07/04 05:04:14;;;;;;;4.60;2.47;;;19.80;64.80;;;;;;5046800;28;20489;-47
2022/07/04 05:06:41;;;;;;;2.67;2.30;;;19.80;65.00;;;;;;5060943;28;20835;-48
2022/07/04 05:09:08;;;;;;;2.53;2.00;;;19.80;65.00;;;;;;5061282;28;20461;-47
2022/07/04 05:11:35;;;;;;;2.33;2.13;;;19.80;64.70;;;;;;5058137;28;21105;-47
2022/07/04 05:14:02;;;;;;;2.20;2.00;;;19.90;64.80;;;;;;5059882;28;20493;-48
2022/07/04 05:16:29;;;;;;;3.70;2.57;;;20.00;64.70;;;;;;5063736;28;20452;-47
2022/07/04 05:18:56;;;;;;;1.87;1.73;;;20.00;64.70;;;;;;5060124;28;20450;-47
2022/07/04 05:21:26;;;;;;;2.07;1.87;;;20.10;64.10;;;;;;5046801;28;20832;-48
2022/07/04 05:23:53;;;;;;;2.00;1.90;;;20.10;64.00;;;;;;5061536;28;20544;-47
2022/07/04 05:26:19;;;;;;;6.23;1.83;;;20.20;64.10;;;;;;5061428;28;20465;-47
2022/07/04 05:28:46;;;;;;;3.93;1.90;;;20.20;63.50;;;;;;5057505;28;20818;-47
2022/07/04 05:31:13;;;;;;;2.10;1.90;;;20.30;63.30;;;;;;5042477;28;20443;-46
2022/07/04 05:33:40;;;;;;;1.90;1.70;;;20.30;63.50;;;;;;5063541;28;20894;-47
2022/07/04 05:36:07;;;;;;;3.63;1.80;;;20.30;62.90;;;;;;5060894;28;20955;-46
2022/07/04 05:38:34;;;;;;;3.20;2.00;;;20.30;62.90;;;;;;5058919;28;20826;-47
2022/07/04 05:41:01;;;;;;;2.00;1.90;;;20.30;63.10;;;;;;5047299;28;20816;-47
2022/07/04 05:43:28;;;;;;;2.33;1.90;;;20.40;62.30;;;;;;5048903;28;21093;-47
2022/07/04 05:45:55;;;;;;;2.90;1.70;;;20.50;62.40;;;;;;5060966;28;20448;-47
2022/07/04 05:48:22;;;;;;;3.73;2.53;;;20.50;61.80;;;;;;5061626;28;20824;-46
2022/07/04 05:50:48;;;;;;;2.23;2.10;;;20.50;61.90;;;;;;5060299;28;20449;-47
2022/07/04 05:53:15;;;;;;;2.40;1.80;;;20.60;61.90;;;;;;5057917;28;20461;-46
2022/07/04 05:55:42;;;;;;;4.57;2.07;;;20.60;61.50;;;;;;5044749;28;20456;-46
2022/07/04 05:58:09;;;;;;;2.83;2.33;;;20.60;60.50;;;;;;5059116;28;20472;-47
2022/07/04 06:00:35;;;;;;;2.80;1.80;;;20.60;60.80;;;;;;5064715;28;20979;-47
2022/07/04 06:03:02;;;;;;;2.00;1.90;;;20.60;61.00;;;;;;5060419;28;20442;-47
2022/07/04 06:05:29;;;;;;;3.20;1.80;;;20.60;61.20;;;;;;5060228;28;20560;-46
2022/07/04 06:07:56;;;;;;;5.57;1.97;;;20.70;60.50;;;;;;5059216;28;20447;-47
2022/07/04 06:10:23;;;;;;;4.53;1.87;;;20.70;60.60;;;;;;5062005;28;20472;-47
2022/07/04 06:12:50;;;;;;;6.13;2.13;;;20.70;59.90;;;;;;5058390;28;20465;-45
2022/07/04 06:15:16;;;;;;;4.77;2.10;;;20.80;60.00;;;;;;5046869;28;20485;-45
2022/07/04 06:17:43;;;;;;;2.50;1.80;;;20.90;58.70;;;;;;5046598;28;20456;-45
2022/07/04 06:20:10;;;;;;;1.97;1.87;;;21.00;58.90;;;;;;5050369;28;20469;-45
2022/07/04 06:22:42;;;;;;;3.53;2.40;;;21.00;58.20;;;;;;5062472;28;20433;-45
2022/07/04 06:25:20;;;;;;;2.50;1.80;;;21.00;58.70;;;;;;5048053;28;20971;-45
2022/07/04 06:27:49;;;;;;;2.70;1.43;;;21.00;58.90;;;;;;5061508;28;20437;-45
2022/07/04 06:30:16;;;;;;;2.43;1.60;;;21.10;57.30;;;;;;5059523;28;20788;-45
2022/07/04 06:32:45;;;;;;;3.47;2.10;;;21.20;57.20;;;;;;5041602;28;20501;-45
2022/07/04 06:37:57;;;;;;;2.70;1.30;;;21.20;56.90;;;;;;5045685;28;20450;-46
2022/07/04 06:40:24;;;;;;;3.47;2.10;;;21.30;57.40;;;;;;5060705;28;20497;-46
2022/07/04 06:42:51;;;;;;;1.93;1.70;;;21.40;56.90;;;;;;5040843;28;20959;-47
2022/07/04 06:45:18;;;;;;;3.53;1.60;;;21.40;57.20;;;;;;5062887;28;20456;-49
2022/07/04 06:47:45;;;;;;;1.93;1.40;;;21.40;57.40;;;;;;5058922;28;20453;-47
2022/07/04 06:50:12;;;;;;;1.93;1.60;;;21.60;56.70;;;;;;5058897;28;20533;-48
2022/07/04 06:53:00;;;;;;;5.63;1.70;;;21.60;56.80;;;;;;5046276;28;20453;-47
2022/07/04 06:55:41;;;;;;;1.50;1.40;;;21.70;56.80;;;;;;5048202;28;20485;-48
2022/07/04 06:58:09;;;;;;;4.67;1.83;;;21.80;56.10;;;;;;5058772;28;20458;-46
2022/07/04 07:00:36;;;;;;;2.90;1.23;;;21.90;55.80;;;;;;5056504;28;20557;-47
2022/07/04 07:03:04;;;;;;;2.50;1.87;;;22.00;54.90;;;;;;5062707;28;20449;-46
2022/07/04 07:05:31;;;;;;;1.50;1.40;;;22.10;54.30;;;;;;5042721;28;20511;-46
2022/07/04 07:08:18;;;;;;;3.33;1.30;;;22.10;53.60;;;;;;5048145;28;20438;-47
2022/07/04 07:10:45;;;;;;;1.83;1.40;;;22.10;53.80;;;;;;5059011;28;20454;-46
2022/07/04 07:13:11;;;;;;;2.13;1.37;;;22.10;53.90;;;;;;5055869;28;20466;-47
2022/07/04 07:15:39;;;;;;;2.57;1.30;;;22.20;53.90;;;;;;5062512;28;20486;-47
2022/07/04 07:18:06;;;;;;;1.30;1.00;;;22.30;54.10;;;;;;5059441;28;20446;-47
2022/07/04 07:20:33;;;;;;;1.87;1.10;;;22.50;53.70;;;;;;5060871;28;20469;-46
2022/07/04 07:23:03;;;;;;;2.97;1.50;;;22.70;52.30;;;;;;5062253;28;20457;-47
2022/07/04 07:25:31;;;;;;;2.50;1.43;;;22.90;51.60;;;;;;5058463;28;20820;-47
2022/07/04 07:27:58;;;;;;;1.30;1.00;;;22.90;51.70;;;;;;5058930;28;20456;-47
2022/07/04 07:30:25;;;;;;;2.33;1.20;;;23.00;51.60;;;;;;5033147;28;20448;-47
2022/07/04 07:32:52;;;;;;;2.53;1.23;;;23.10;51.90;;;;;;5063207;28;20460;-48
2022/07/04 07:35:18;;;;;;;3.90;1.23;;;23.20;51.80;;;;;;5049504;28;20491;-47
2022/07/04 07:37:45;;;;;;;2.47;0.97;;;23.40;50.70;;;;;;5065537;28;20456;-47
2022/07/04 07:40:12;;;;;;;3.20;1.30;;;23.60;50.80;;;;;;5063070;28;20974;-47
2022/07/04 07:42:39;;;;;;;3.10;1.00;;;23.70;50.20;;;;;;5047449;28;20459;-48
2022/07/04 07:45:06;;;;;;;1.47;1.00;;;23.80;49.70;;;;;;5065947;28;20519;-48
2022/07/04 07:47:33;;;;;;;0.90;0.90;;;24.00;49.50;;;;;;5062912;28;20449;-47
2022/07/04 07:50:00;;;;;;;2.30;1.00;;;24.10;49.00;;;;;;5032582;28;20559;-47
2022/07/04 07:52:26;;;;;;;3.87;0.80;;;24.30;49.00;;;;;;5061008;28;20454;-48
2022/07/04 07:54:53;;;;;;;1.40;0.90;;;24.50;47.80;;;;;;5048266;28;20482;-47
2022/07/04 07:57:26;;;;;;;2.33;0.90;;;24.60;47.80;;;;;;5062159;28;20467;-47
2022/07/04 07:59:53;;;;;;;0.80;0.77;;;24.70;47.80;;;;;;5034383;28;20467;-47
2022/07/04 08:02:19;;;;;;;2.40;0.93;;;24.80;47.20;;;;;;5065275;28;20445;-47
2022/07/04 08:04:46;;;;;;;3.60;1.07;;;24.90;46.90;;;;;;5063702;28;20444;-48
2022/07/04 08:07:13;;;;;;;0.90;0.80;;;25.00;46.40;;;;;;5049377;28;20452;-47
2022/07/04 08:09:49;;;;;;;1.73;1.07;;;25.10;46.70;;;;;;5061070;28;20457;-47
2022/07/04 08:12:16;;;;;;;2.23;0.70;;;25.20;46.80;;;;;;5057692;28;20543;-48
2022/07/04 08:14:43;;;;;;;1.53;1.13;;;25.30;46.60;;;;;;5060768;28;20486;-47
2022/07/04 08:17:10;;;;;;;1.03;0.87;;;25.40;46.70;;;;;;5049124;28;20453;-48
2022/07/04 08:19:38;;;;;;;1.50;1.40;;;25.60;46.10;;;;;;5055151;28;20826;-47
2022/07/04 08:22:05;;;;;;;1.80;0.80;;;25.60;45.80;;;;;;5064502;28;20946;-47
2022/07/04 08:24:41;;;;;;;6.43;1.30;;;25.70;46.40;;;;;;5064120;28;20447;-47
2022/07/04 08:27:08;;;;;;;1.00;0.80;;;25.80;46.10;;;;;;5059653;28;20876;-47
2022/07/04 08:29:35;;;;;;;1.00;1.00;;;25.90;45.40;;;;;;5061681;28;20815;-48
2022/07/04 08:32:02;;;;;;;1.90;1.20;;;25.90;45.10;;;;;;5062567;28;20468;-47
2022/07/04 08:34:29;;;;;;;0.87;0.73;;;26.00;45.20;;;;;;5044780;28;20488;-48
2022/07/04 08:36:56;;;;;;;1.63;0.90;;;26.20;45.70;;;;;;5062102;28;20445;-48
2022/07/04 08:39:24;;;;;;;2.00;0.80;;;26.30;45.20;;;;;;5049424;28;20448;-48
2022/07/04 08:41:56;;;;;;;2.17;1.07;;;26.40;45.20;;;;;;5062589;28;20553;-48
2022/07/04 08:44:25;;;;;;;1.37;1.00;;;26.50;44.60;;;;;;5031094;28;20445;-48
2022/07/04 08:46:54;;;;;;;2.73;0.70;;;26.50;44.70;;;;;;5060190;28;20532;-48
2022/07/04 08:49:23;;;;;;;1.07;0.70;;;26.50;44.60;;;;;;5051085;28;20838;-47
2022/07/04 08:51:59;;;;;;;3.00;1.27;;;26.30;43.90;;;;;;5057816;28;20452;-47
2022/07/04 08:59:58;;;;;;;1.57;0.80;;;25.70;45.80;;;;;;5063269;28;20461;-48
2022/07/04 09:02:28;;;;;;;2.67;1.07;;;25.60;45.40;;;;;;5045820;28;20457;-47
2022/07/04 09:04:55;;;;;;;2.77;0.80;;;25.70;45.70;;;;;;5031628;28;20519;-47
2022/07/04 09:07:22;;;;;;;2.20;0.80;;;25.90;44.80;;;;;;5064818;28;20547;-48
2022/07/04 09:09:49;;;;;;;4.20;0.90;;;26.20;44.50;;;;;;5060927;28;20452;-48
2022/07/04 09:12:19;;;;;;;2.63;0.73;;;26.40;43.90;;;;;;5045625;28;20507;-47
2022/07/04 09:14:46;;;;;;;1.60;0.80;;;26.60;44.20;;;;;;5032246;28;21023;-48
2022/07/04 09:17:12;;;;;;;2.60;0.80;;;26.80;43.20;;;;;;5048961;28;20529;-47
2022/07/04 09:19:39;;;;;;;1.00;0.87;;;26.80;43.10;;;;;;5062876;28;20464;-47
2022/07/04 09:22:14;;;;;;;1.17;0.70;;;26.90;43.00;;;;;;5062369;28;20477;-47
2022/07/04 09:24:54;;;;;;;1.73;0.87;;;26.90;43.20;;;;;;5062955;28;20532;-47
2022/07/04 09:27:35;;;;;;;5.03;0.97;;;26.90;43.30;;;;;;5048082;28;20480;-48
2022/07/04 09:30:06;;;;;;;0.90;0.70;;;27.00;42.70;;;;;;5059837;28;20504;-48
2022/07/04 09:32:42;;;;;;;3.77;0.70;;;27.20;43.00;;;;;;5060946;28;20473;-48
2022/07/04 09:35:16;;;;;;;1.20;1.00;;;27.40;41.40;;;;;;5057294;28;20234;-48
2022/07/04 09:37:51;;;;;;;0.80;0.73;;;27.50;41.60;;;;;;5062129;28;20741;-48
2022/07/04 09:41:24;;;;;;;1.73;0.80;;;27.60;40.80;;;;;;5061863;28;20491;-47
2022/07/04 09:43:21;;;;;;;0.83;0.83;;;27.60;40.20;;;;;;5061031;28;21059;-47
2022/07/04 09:45:55;;;;;;;1.97;0.93;;;27.50;41.20;;;;;;5058644;28;20450;-48
2022/07/04 09:48:23;;;;;;;1.30;0.77;;;27.60;41.30;;;;;;5042342;28;20540;-48
2022/07/04 09:50:51;;;;;;;2.47;0.80;;;27.60;41.10;;;;;;5050441;28;20233;-48
2022/07/04 09:53:18;;;;;;;1.27;0.70;;;27.60;41.30;;;;;;5046205;28;20466;-47
2022/07/04 09:55:49;;;;;;;1.63;0.90;;;27.80;40.60;;;;;;5059281;28;20481;-47
2022/07/04 09:58:54;;;;;;;2.57;0.60;;;28.10;40.00;;;;;;5059746;28;20624;-48
2022/07/04 10:01:22;;;;;;;1.20;0.67;;;28.40;39.80;;;;;;5057313;28;20233;-47
2022/07/04 10:03:51;;;;;;;2.97;0.87;;;28.60;38.50;;;;;;5062348;28;20206;-48
2022/07/04 10:06:18;;;;;;;2.17;0.90;;;28.60;38.60;;;;;;5044993;28;20729;-48
2022/07/04 10:08:45;;;;;;;0.70;0.50;;;28.70;38.20;;;;;;5061574;28;20294;-47
2022/07/04 10:11:12;;;;;;;2.07;0.83;;;28.70;38.50;;;;;;5044428;28;20213;-48
2022/07/04 10:13:45;;;;;;;2.73;0.70;;;28.80;38.10;;;;;;5058144;28;20212;-48
2022/07/04 10:16:14;;;;;;;1.38;0.80;;;28.90;38.10;;;;;;5062165;28;20223;-47
2022/07/04 10:18:42;;;;;;;2.20;0.50;;;29.10;37.20;;;;;;5058934;28;20594;-48
2022/07/04 10:21:09;;;;;;;1.25;0.50;;;29.40;36.50;;;;;;5045560;28;20206;-48
2022/07/04 10:23:37;;;;;;;2.65;0.57;;;29.40;37.00;;;;;;5059979;28;20302;-48
2022/07/04 10:26:04;;;;;;;1.08;0.43;;;29.50;36.80;;;;;;5058061;28;20704;-47
2022/07/04 10:28:32;;;;;;;0.90;0.50;;;29.70;35.50;;;;;;5062045;28;20210;-47
2022/07/04 10:31:00;;;;;;;1.15;0.60;;;29.60;35.80;;;;;;5062228;28;20673;-47
2022/07/04 10:33:29;;;;;;;0.50;0.45;;;29.50;35.70;;;;;;5063718;28;20253;-48
2022/07/04 10:36:04;;;;;;;1.30;0.68;;;29.50;36.10;;;;;;5041746;28;20230;-47
2022/07/04 10:38:52;;;;;;;2.38;1.20;;;29.50;36.20;;;;;;5061691;28;20285;-47
2022/07/04 10:41:23;;;;;;;3.85;0.70;;;29.40;35.90;;;;;;5059353;28;20290;-48
2022/07/04 10:44:07;;;;;;;0.70;0.50;;;29.30;36.70;;;;;;5060553;28;20703;-47
2022/07/04 10:46:35;;;;;;;1.83;0.70;;;29.10;36.20;;;;;;5060493;28;20202;-47
2022/07/04 10:49:04;;;;;;;1.13;0.47;;;28.90;36.60;;;;;;5062682;28;20237;-47
2022/07/04 10:51:52;;;;;;;1.23;0.40;;;28.70;37.00;;;;;;5058297;28;20207;-47
2022/07/04 10:54:32;;;;;;;0.57;0.40;;;28.40;36.30;;;;;;5059327;28;20297;-47
2022/07/04 10:57:19;;;;;;;0.80;0.50;;;28.20;37.90;;;;;;5059556;28;20199;-47
2022/07/04 10:59:52;;;;;;;0.93;0.63;;;27.90;38.00;;;;;;5050496;28;20226;-47
2022/07/04 11:02:36;;;;;;;1.07;0.73;;;27.60;38.80;;;;;;5048288;28;20473;-47
2022/07/04 11:05:07;;;;;;;1.03;0.83;;;27.30;38.50;;;;;;5061990;28;20211;-47
2022/07/04 11:07:38;;;;;;;0.93;0.80;;;27.00;38.90;;;;;;5047200;28;20514;-47
2022/07/04 11:10:15;;;;;;;;;;;;;;;;;;;;;
2022/07/04 11:12:59;;;;;;;0.93;0.60;;;26.40;40.10;;;;;;5063257;28;20547;-48
2022/07/04 11:15:28;;;;;;;1.40;0.70;;;26.20;40.60;;;;;;5060879;28;20489;-47
2022/07/04 11:17:59;;;;;;;2.03;0.90;;;26.00;40.50;;;;;;5062108;28;20872;-47
2022/07/04 11:20:32;;;;;;;2.30;0.97;;;25.90;40.40;;;;;;5060301;28;20456;-48
2022/07/04 11:23:09;;;;;;;4.57;1.40;;;25.90;40.90;;;;;;5061583;28;20553;-46
2022/07/04 11:25:36;;;;;;;1.73;1.47;;;25.90;41.90;;;;;;5065596;28;20461;-46
2022/07/04 11:28:22;;;;;;;1.80;0.90;;;25.90;41.50;;;;;;5061175;28;20974;-46
2022/07/04 11:31:10;;;;;;;3.13;0.90;;;25.80;41.70;;;;;;5066102;28;20459;-46
2022/07/04 11:33:39;;;;;;;1.13;0.77;;;25.80;41.20;;;;;;5046941;28;20452;-46
2022/07/04 11:36:18;;;;;;;2.03;0.60;;;25.90;41.60;;;;;;5067680;28;20497;-46
2022/07/04 11:38:49;;;;;;;1.00;0.80;;;25.90;42.60;;;;;;5048651;28;20555;-46
2022/07/04 11:47:14;;;;;;;0.97;0.80;;;25.80;42.20;;;;;;5063292;28;20493;-46
2022/07/04 11:49:58;;;;;;;2.00;0.70;;;25.80;41.90;;;;;;5060179;28;20559;-46
2022/07/04 11:52:30;;;;;;;0.60;0.50;;;25.70;41.90;;;;;;5063874;28;20458;-46
2022/07/04 11:55:18;;;;;;;3.03;0.80;;;25.70;42.60;;;;;;5052579;28;20852;-46
2022/07/04 11:57:47;;;;;;;1.40;0.70;;;25.70;41.40;;;;;;5057514;28;20460;-46
2022/07/04 12:00:16;;;;;;;1.63;0.80;;;25.70;40.90;;;;;;5064671;28;20461;-46
2022/07/04 12:02:45;;;;;;;1.63;0.73;;;25.70;40.80;;;;;;5060792;28;20576;-46
2022/07/04 12:05:13;;;;;;;2.97;0.83;;;25.70;40.70;;;;;;5049799;28;20473;-46
2022/07/04 12:07:42;;;;;;;1.33;0.73;;;25.70;42.30;;;;;;5060679;28;20478;-46
2022/07/04 12:10:29;;;;;;;1.63;0.60;;;25.70;41.80;;;;;;5063014;28;20461;-46
2022/07/04 12:13:02;;;;;;;1.83;0.90;;;25.70;42.10;;;;;;5048016;28;20458;-46
2022/07/04 12:15:41;;;;;;;2.20;0.50;;;25.70;41.70;;;;;;5047631;28;20496;-46
2022/07/04 12:18:22;;;;;;;0.70;0.70;;;25.80;42.10;;;;;;5064086;28;20465;-46
2022/07/04 12:20:51;;;;;;;1.53;0.70;;;25.80;42.10;;;;;;5058637;28;20457;-46
2022/07/04 12:23:20;;;;;;;1.00;0.70;;;25.80;42.40;;;;;;5057865;28;20465;-46
2022/07/04 12:25:51;;;;;;;1.23;0.73;;;25.90;41.20;;;;;;5062694;28;20933;-46
2022/07/04 12:28:19;;;;;;;2.77;0.67;;;25.90;41.40;;;;;;5062022;28;20962;-46
2022/07/04 12:30:49;;;;;;;0.80;0.60;;;26.00;41.40;;;;;;5048656;28;21016;-46
2022/07/04 12:33:19;;;;;;;1.60;0.73;;;26.00;40.90;;;;;;5060595;28;20481;-46
2022/07/04 12:35:47;;;;;;;1.00;0.63;;;26.00;41.00;;;;;;5062737;28;21024;-46
2022/07/04 12:38:16;;;;;;;1.40;0.83;;;26.00;40.50;;;;;;5059547;28;20482;-46
2022/07/04 12:40:57;;;;;;;1.00;0.80;;;26.00;41.20;;;;;;5047815;28;20667;-46
2022/07/04 12:43:46;;;;;;;1.00;0.70;;;26.00;40.80;;;;;;5063944;28;20496;-46
2022/07/04 12:46:31;;;;;;;0.73;0.70;;;26.00;40.60;;;;;;5061398;28;20556;-46
2022/07/04 12:49:01;;;;;;;2.40;0.70;;;26.00;40.30;;;;;;5062244;28;20957;-46
2022/07/04 12:51:32;;;;;;;2.20;0.60;;;26.10;39.70;;;;;;5058681;28;20445;-46
2022/07/04 12:54:07;;;;;;;1.20;0.60;;;26.10;40.00;;;;;;5061652;28;20622;-46
2022/07/04 12:56:38;;;;;;;0.60;0.50;;;26.10;40.30;;;;;;5064415;28;21021;-46
2022/07/04 12:59:07;;;;;;;0.83;0.47;;;26.20;41.00;;;;;;5059489;28;20452;-46
2022/07/04 13:01:41;;;;;;;6.07;1.17;;;26.20;39.90;;;;;;5059053;28;20466;-46
2022/07/04 13:04:08;;;;;;;1.60;0.80;;;26.20;39.90;;;;;;5059606;28;20458;-46
2022/07/04 13:06:35;;;;;;;1.90;0.70;;;26.20;39.80;;;;;;5064055;28;20534;-46
2022/07/04 13:09:04;;;;;;;1.60;0.90;;;26.20;40.30;;;;;;5060648;28;20497;-46
2022/07/04 13:14:16;;;;;;;1.53;0.70;;;26.40;39.30;;;;;;5063072;28;21021;-46
2022/07/04 13:16:43;;;;;;;1.07;0.80;;;26.40;39.60;;;;;;5043448;28;20477;-46
2022/07/04 13:19:10;;;;;;;1.50;0.60;;;26.40;39.50;;;;;;5062772;28;20513;-46